createdAt,value
2019-02-24T00:03:08.667Z,100929.16
2019-02-24T00:06:22.412Z,100935.13
2019-02-24T00:09:36.287Z,100944.11
2019-02-24T00:12:49.985Z,100943.32
2019-02-24T00:16:03.589Z,100938.94
2019-02-24T00:19:17.063Z,100942.97
2019-02-24T00:22:30.910Z,100940.45
2019-02-24T00:25:44.383Z,100940.73
2019-02-24T00:28:57.852Z,100942.08
2019-02-24T00:32:11.613Z,100944.16
2019-02-24T00:35:25.104Z,100940.62
2019-02-24T00:38:38.828Z,100933.71
2019-02-24T00:41:52.616Z,100931.20
2019-02-24T00:45:06.456Z,100931.45
2019-02-24T00:48:19.940Z,100934.97
2019-02-24T00:51:33.853Z,100932.47
2019-02-24T00:54:47.679Z,100931.71
2019-02-24T00:58:01.143Z,100929.09
2019-02-24T01:01:14.915Z,100932.77
2019-02-24T01:04:28.723Z,100939.78
2019-02-24T01:07:42.584Z,100943.94
2019-02-24T01:10:57.278Z,100941.06
2019-02-24T01:14:10.770Z,100937.12
2019-02-24T01:17:24.254Z,100936.41
2019-02-24T01:20:38.008Z,100944.16
2019-02-24T01:23:51.542Z,100941.17
2019-02-24T01:27:05.352Z,100943.94
2019-02-24T01:30:18.888Z,100939.00
2019-02-24T01:33:32.293Z,100938.13
2019-02-24T01:36:46.077Z,100942.89
2019-02-24T01:39:59.540Z,100933.28
2019-02-24T01:43:13.089Z,100930.20
2019-02-24T01:46:26.885Z,100929.29
2019-02-24T01:49:40.402Z,100933.98
2019-02-24T01:52:54.125Z,100927.33
2019-02-24T01:56:07.604Z,100921.58
2019-02-24T01:59:21.092Z,100918.13
2019-02-24T02:02:34.977Z,100922.66
2019-02-24T02:05:49.103Z,100912.58
2019-02-24T02:09:04.516Z,100914.44
2019-02-24T02:12:17.999Z,100919.86
2019-02-24T02:15:31.552Z,100921.19
2019-02-24T02:18:45.356Z,100924.97
2019-02-24T02:21:58.828Z,100921.91
2019-02-24T02:25:12.629Z,100931.54
2019-02-24T02:28:26.239Z,100930.53
2019-02-24T02:31:39.949Z,100930.62
2019-02-24T02:34:53.536Z,100930.34
2019-02-24T02:38:07.038Z,100925.05
2019-02-24T02:41:20.504Z,100927.48
2019-02-24T02:44:33.989Z,100924.05
2019-02-24T02:47:47.468Z,100926.47
2019-02-24T02:51:01.224Z,100917.75
2019-02-24T02:54:15.039Z,100922.40
2019-02-24T02:57:28.624Z,100925.88
2019-02-24T03:00:42.316Z,100922.00
2019-02-24T03:03:55.787Z,100914.83
2019-02-24T03:07:22.706Z,100909.89
2019-02-24T03:10:36.179Z,100912.48
2019-02-24T03:13:49.777Z,100909.53
2019-02-24T03:17:03.226Z,100916.98
2019-02-24T03:20:16.716Z,100915.13
2019-02-24T03:23:30.512Z,100919.20
2019-02-24T03:26:44.318Z,100923.07
2019-02-24T03:29:57.788Z,100924.24
2019-02-24T03:33:11.279Z,100915.77
2019-02-24T03:36:25.420Z,100919.77
2019-02-24T03:39:38.891Z,100919.93
2019-02-24T03:42:52.353Z,100925.83
2019-02-24T03:46:06.219Z,100924.39
2019-02-24T03:49:20.085Z,100918.50
2019-02-24T03:52:33.771Z,100922.14
2019-02-24T03:55:47.464Z,100927.87
2019-02-24T03:59:01.147Z,100927.08
2019-02-24T04:02:15.011Z,100924.45
2019-02-24T04:05:28.537Z,100918.67
2019-02-24T04:08:42.004Z,100911.78
2019-02-24T04:11:55.780Z,100918.94
2019-02-24T04:15:09.691Z,100926.52
2019-02-24T04:18:23.170Z,100926.64
2019-02-24T04:21:36.666Z,100925.95
2019-02-24T04:24:50.145Z,100927.30
2019-02-24T04:28:04.050Z,100925.52
2019-02-24T04:31:17.585Z,100915.34
2019-02-24T04:34:31.043Z,100913.34
2019-02-24T04:37:44.542Z,100914.20
2019-02-24T04:40:58.289Z,100903.55
2019-02-24T04:44:11.763Z,100909.31
2019-02-24T04:47:25.256Z,100911.18
2019-02-24T04:50:38.706Z,100916.59
2019-02-24T04:53:52.195Z,100908.75
2019-02-24T04:57:05.949Z,100910.44
2019-02-24T05:00:19.533Z,100912.09
2019-02-24T05:03:33.012Z,100916.38
2019-02-24T05:06:46.787Z,100913.56
2019-02-24T05:10:00.262Z,100916.73
2019-02-24T05:13:13.755Z,100921.53
2019-02-24T05:16:27.227Z,100920.20
2019-02-24T05:19:40.701Z,100914.82
2019-02-24T05:22:54.443Z,100912.17
2019-02-24T05:26:08.150Z,100912.83
2019-02-24T05:29:21.868Z,100911.00
2019-02-24T05:32:35.389Z,100912.78
2019-02-24T05:35:49.232Z,100923.09
2019-02-24T05:39:03.935Z,100925.09
2019-02-24T05:42:18.082Z,100924.66
2019-02-24T05:45:32.298Z,100928.69
2019-02-24T05:48:45.771Z,100930.64
2019-02-24T05:51:59.243Z,100932.72
2019-02-24T05:55:12.717Z,100931.53
2019-02-24T05:58:26.270Z,100931.61
2019-02-24T06:01:39.784Z,100923.82
2019-02-24T06:04:53.295Z,100925.22
2019-02-24T06:08:07.069Z,100929.07
2019-02-24T06:11:20.705Z,100931.81
2019-02-24T06:14:34.172Z,100932.23
2019-02-24T06:17:47.671Z,100934.92
2019-02-24T06:21:01.243Z,100940.03
2019-02-24T06:24:14.737Z,100941.64
2019-02-24T06:27:28.218Z,100946.44
2019-02-24T06:30:41.692Z,100942.47
2019-02-24T06:33:55.184Z,100943.50
2019-02-24T06:37:08.930Z,100943.92
2019-02-24T06:40:22.395Z,100946.70
2019-02-24T06:43:35.891Z,100945.75
2019-02-24T06:46:49.811Z,100945.92
2019-02-24T06:50:05.323Z,100950.09
2019-02-24T06:53:19.735Z,100948.75
2019-02-24T06:56:33.316Z,100943.30
2019-02-24T06:59:46.845Z,100941.41
2019-02-24T07:03:00.322Z,100945.64
2019-02-24T07:06:13.833Z,100944.38
2019-02-24T07:09:27.360Z,100942.05
2019-02-24T07:12:41.174Z,100943.52
2019-02-24T07:15:55.186Z,100947.72
2019-02-24T07:19:08.676Z,100951.06
2019-02-24T07:22:22.286Z,100950.54
2019-02-24T07:25:35.760Z,100951.66
2019-02-24T07:28:50.058Z,100952.05
2019-02-24T07:32:03.761Z,100952.78
2019-02-24T07:35:17.226Z,100956.94
2019-02-24T07:38:30.720Z,100949.84
2019-02-24T07:41:44.227Z,100940.98
2019-02-24T07:44:58.014Z,100938.81
2019-02-24T07:48:11.538Z,100942.42
2019-02-24T07:51:25.345Z,100938.05
2019-02-24T07:54:38.850Z,100932.72
2019-02-24T07:57:52.325Z,100932.18
2019-02-24T08:01:06.183Z,100931.56
2019-02-24T08:04:19.655Z,100939.34
2019-02-24T08:07:33.373Z,100933.12
2019-02-24T08:10:46.885Z,100934.45
2019-02-24T08:14:00.351Z,100940.14
2019-02-24T08:17:13.839Z,100936.05
2019-02-24T08:20:27.523Z,100935.52
2019-02-24T08:23:41.113Z,100936.13
2019-02-24T08:26:54.935Z,100943.73
2019-02-24T08:30:09.417Z,100944.21
2019-02-24T08:33:23.347Z,100939.35
2019-02-24T08:36:37.093Z,100932.09
2019-02-24T08:39:50.699Z,100934.05
2019-02-24T08:43:04.597Z,100933.86
2019-02-24T08:46:18.068Z,100932.92
2019-02-24T08:49:31.546Z,100930.75
2019-02-24T08:52:45.038Z,100932.08
2019-02-24T08:55:58.522Z,100929.05
2019-02-24T08:59:12.339Z,100924.63
2019-02-24T09:02:25.855Z,100924.45
2019-02-24T09:05:39.674Z,100928.16
2019-02-24T09:08:53.330Z,100936.34
2019-02-24T09:12:07.141Z,100927.59
2019-02-24T09:15:20.930Z,100936.16
2019-02-24T09:18:34.788Z,100933.91
2019-02-24T09:21:48.383Z,100934.00
2019-02-24T09:25:03.412Z,100932.65
2019-02-24T09:28:17.300Z,100931.31
2019-02-24T09:31:30.895Z,100932.70
2019-02-24T09:34:44.669Z,100929.48
2019-02-24T09:37:58.269Z,100935.28
2019-02-24T09:41:11.967Z,100934.44
2019-02-24T09:44:25.779Z,100929.01
2019-02-24T09:47:46.419Z,100929.91
2019-02-24T09:50:54.921Z,100930.55
2019-02-24T09:54:08.387Z,100932.83
2019-02-24T09:57:21.874Z,100929.66
2019-02-24T10:00:35.907Z,100920.11
2019-02-24T10:03:49.482Z,100918.42
2019-02-24T10:07:03.086Z,100919.92
2019-02-24T10:10:16.681Z,100917.37
2019-02-24T10:13:30.170Z,100920.00
2019-02-24T10:16:43.766Z,100919.14
2019-02-24T10:19:57.275Z,100915.34
2019-02-24T10:23:10.805Z,100922.68
2019-02-24T10:26:24.454Z,100929.98
2019-02-24T10:29:37.961Z,100928.13
2019-02-24T10:32:51.533Z,100934.30
2019-02-24T10:36:05.489Z,100927.31
2019-02-24T10:39:19.158Z,100923.72
2019-02-24T10:42:32.883Z,100930.00
2019-02-24T10:45:46.636Z,100930.70
2019-02-24T10:49:03.353Z,100930.26
2019-02-24T10:52:16.667Z,100925.59
2019-02-24T10:55:30.342Z,100929.72
2019-02-24T10:58:43.824Z,100930.23
2019-02-24T11:01:57.329Z,100925.48
2019-02-24T11:05:11.498Z,100930.68
2019-02-24T11:08:25.108Z,100927.58
2019-02-24T11:11:38.841Z,100921.84
2019-02-24T11:14:52.601Z,100914.17
2019-02-24T11:18:06.328Z,100913.78
2019-02-24T11:21:20.185Z,100910.39
2019-02-24T11:24:34.174Z,100901.63
2019-02-24T11:27:47.970Z,100900.19
2019-02-24T11:31:06.445Z,100895.68
2019-02-24T11:34:20.506Z,100882.41
2019-02-24T11:37:34.208Z,100882.00
2019-02-24T11:40:47.915Z,100879.92
2019-02-24T11:44:01.391Z,100877.73
2019-02-24T11:47:15.187Z,100877.09
2019-02-24T11:50:29.098Z,100870.52
2019-02-24T11:53:42.577Z,100862.79
2019-02-24T11:56:56.346Z,100868.04
2019-02-24T12:00:10.173Z,100860.30
2019-02-24T12:03:23.761Z,100863.22
2019-02-24T12:06:37.689Z,100852.72
2019-02-24T12:09:51.156Z,100849.99
2019-02-24T12:13:05.014Z,100842.08
2019-02-24T12:16:18.488Z,100838.71
2019-02-24T12:19:32.239Z,100842.56
2019-02-24T12:22:45.924Z,100841.05
2019-02-24T12:25:59.660Z,100850.73
2019-02-24T12:29:13.147Z,100858.15
2019-02-24T12:32:26.632Z,100867.91
2019-02-24T12:35:40.353Z,100864.45
2019-02-24T12:38:54.134Z,100861.18
2019-02-24T12:42:07.779Z,100853.66
2019-02-24T12:45:21.298Z,100856.83
2019-02-24T12:48:34.893Z,100860.70
2019-02-24T12:51:48.461Z,100856.94
2019-02-24T12:55:02.216Z,100860.17
2019-02-24T12:58:15.685Z,100841.98
2019-02-24T13:01:29.273Z,100840.31
2019-02-24T13:04:43.284Z,100849.20
2019-02-24T13:07:57.175Z,100848.34
2019-02-24T13:11:11.074Z,100839.55
2019-02-24T13:14:25.040Z,100844.14
2019-02-24T13:17:38.903Z,100831.67
2019-02-24T13:20:53.254Z,100830.22
2019-02-24T13:24:06.955Z,100834.28
2019-02-24T13:27:20.857Z,100820.84
2019-02-24T13:30:36.105Z,100825.25
2019-02-24T13:33:50.105Z,100821.22
2019-02-24T13:37:03.934Z,100824.71
2019-02-24T13:40:17.512Z,100827.67
2019-02-24T13:43:31.287Z,100820.70
2019-02-24T13:46:45.051Z,100816.18
2019-02-24T13:49:58.549Z,100811.39
2019-02-24T13:53:12.274Z,100812.99
2019-02-24T13:56:25.751Z,100810.34
2019-02-24T13:59:39.226Z,100808.89
2019-02-24T14:02:52.819Z,100811.58
2019-02-24T14:06:06.614Z,100805.67
2019-02-24T14:09:20.092Z,100797.32
2019-02-24T14:12:33.652Z,100785.16
2019-02-24T14:15:47.139Z,100779.30
2019-02-24T14:19:00.703Z,100782.61
2019-02-24T14:22:14.594Z,100780.69
2019-02-24T14:25:28.082Z,100782.56
2019-02-24T14:28:42.163Z,100774.85
2019-02-24T14:31:55.647Z,100779.48
2019-02-24T14:35:10.570Z,100777.55
2019-02-24T14:38:24.039Z,100774.16
2019-02-24T14:41:37.577Z,100760.20
2019-02-24T14:44:51.057Z,100768.89
2019-02-24T14:48:04.647Z,100770.19
2019-02-24T14:51:19.274Z,100768.19
2019-02-24T14:54:32.868Z,100763.78
2019-02-24T14:57:46.739Z,100759.37
2019-02-24T15:01:00.925Z,100752.73
2019-02-24T15:04:14.586Z,100749.02
2019-02-24T15:07:28.257Z,100742.00
2019-02-24T15:10:42.038Z,100746.13
2019-02-24T15:13:55.892Z,100758.35
2019-02-24T15:17:10.032Z,100763.66
2019-02-24T15:20:23.815Z,100764.36
2019-02-24T15:23:37.713Z,100772.63
2019-02-24T15:26:51.238Z,100777.72
2019-02-24T15:30:08.332Z,100778.81
2019-02-24T15:33:22.312Z,100778.28
2019-02-24T15:36:35.941Z,100786.16
2019-02-24T15:39:49.834Z,100786.98
2019-02-24T15:43:03.691Z,100779.48
2019-02-24T15:46:18.246Z,100781.80
2019-02-24T15:49:31.747Z,100783.95
2019-02-24T15:52:46.012Z,100789.47
2019-02-24T15:56:00.871Z,100790.91
2019-02-24T15:59:14.371Z,100794.14
2019-02-24T16:02:28.695Z,100791.27
2019-02-24T16:05:42.637Z,100792.86
2019-02-24T16:08:56.363Z,100782.50
2019-02-24T16:12:10.257Z,100781.59
2019-02-24T16:15:25.408Z,100785.02
2019-02-24T16:18:38.943Z,100792.94
2019-02-24T16:21:52.766Z,100794.73
2019-02-24T16:25:06.914Z,100789.61
2019-02-24T16:28:20.705Z,100788.64
2019-02-24T16:31:34.190Z,100795.52
2019-02-24T16:34:47.691Z,100800.41
2019-02-24T16:38:01.473Z,100803.02
2019-02-24T16:41:15.485Z,100809.86
2019-02-24T16:44:29.190Z,100812.55
2019-02-24T16:47:42.824Z,100815.63
2019-02-24T16:50:56.620Z,100820.90
2019-02-24T16:54:10.108Z,100823.73
2019-02-24T16:57:23.580Z,100832.09
2019-02-24T17:00:37.605Z,100826.49
2019-02-24T17:03:51.277Z,100836.75
2019-02-24T17:07:04.843Z,100833.48
2019-02-24T17:10:18.532Z,100836.78
2019-02-24T17:13:32.014Z,100846.30
2019-02-24T17:16:45.545Z,100844.64
2019-02-24T17:19:59.790Z,100847.16
2019-02-24T17:23:13.656Z,100844.92
2019-02-24T17:26:27.171Z,100846.34
2019-02-24T17:29:40.647Z,100848.48
2019-02-24T17:32:54.230Z,100859.31
2019-02-24T17:36:07.893Z,100857.97
2019-02-24T17:39:21.419Z,100860.44
2019-02-24T17:42:34.893Z,100868.98
2019-02-24T17:45:48.370Z,100874.36
2019-02-24T17:49:01.823Z,100865.19
2019-02-24T17:52:15.365Z,100875.00
2019-02-24T17:55:28.909Z,100879.83
2019-02-24T17:58:42.475Z,100886.28
2019-02-24T18:01:55.978Z,100884.01
2019-02-24T18:05:09.731Z,100879.84
2019-02-24T18:08:28.239Z,100880.49
2019-02-24T18:11:38.740Z,100882.11
2019-02-24T18:14:52.220Z,100896.02
2019-02-24T18:18:05.827Z,100890.61
2019-02-24T18:21:19.607Z,100895.14
2019-02-24T18:24:33.074Z,100899.58
2019-02-24T18:27:46.680Z,100901.58
2019-02-24T18:31:00.272Z,100897.09
2019-02-24T18:34:13.884Z,100901.73
2019-02-24T18:37:27.671Z,100905.23
2019-02-24T18:40:41.396Z,100912.77
2019-02-24T18:43:55.206Z,100904.14
2019-02-24T18:47:08.675Z,100914.16
2019-02-24T18:50:23.028Z,100912.80
2019-02-24T18:53:36.894Z,100923.55
2019-02-24T18:56:50.384Z,100921.33
2019-02-24T19:00:05.117Z,100923.53
2019-02-24T19:03:19.251Z,100925.60
2019-02-24T19:06:39.175Z,100932.39
2019-02-24T19:09:49.098Z,100925.69
2019-02-24T19:13:02.663Z,100924.56
2019-02-24T19:16:16.227Z,100918.58
2019-02-24T19:19:29.987Z,100917.83
2019-02-24T19:22:44.003Z,100921.47
2019-02-24T19:25:57.454Z,100927.52
2019-02-24T19:29:11.462Z,100919.21
2019-02-24T19:32:24.924Z,100910.98
2019-02-24T19:35:40.593Z,100909.14
2019-02-24T19:38:54.209Z,100914.08
2019-02-24T19:42:07.665Z,100907.86
2019-02-24T19:45:21.261Z,100914.09
2019-02-24T19:48:41.758Z,100917.66
2019-02-24T19:51:50.458Z,100925.27
2019-02-24T19:55:04.598Z,100925.14
2019-02-24T19:58:18.176Z,100932.80
2019-02-24T20:01:31.743Z,100932.33
2019-02-24T20:04:45.218Z,100938.05
2019-02-24T20:07:58.702Z,100935.11
2019-02-24T20:11:12.187Z,100929.72
2019-02-24T20:14:25.921Z,100944.88
2019-02-24T20:17:39.374Z,100953.06
2019-02-24T20:20:53.109Z,100949.94
2019-02-24T20:24:06.570Z,100965.48
2019-02-24T20:27:20.131Z,100960.02
2019-02-24T20:30:33.738Z,100965.02
2019-02-24T20:33:47.302Z,100965.20
2019-02-24T20:37:00.808Z,100967.11
2019-02-24T20:40:14.390Z,100965.27
2019-02-24T20:43:28.111Z,100967.77
2019-02-24T20:46:41.636Z,100968.67
2019-02-24T20:49:55.133Z,100978.00
2019-02-24T20:53:08.580Z,100965.55
2019-02-24T20:56:22.265Z,100966.27
2019-02-24T20:59:36.439Z,100969.88
2019-02-24T21:02:50.613Z,100966.54
2019-02-24T21:06:04.292Z,100966.44
2019-02-24T21:09:17.771Z,100969.43
2019-02-24T21:12:31.526Z,100963.23
2019-02-24T21:15:44.979Z,100958.61
2019-02-24T21:18:58.426Z,100962.53
2019-02-24T21:22:11.905Z,100957.50
2019-02-24T21:25:25.464Z,100955.55
2019-02-24T21:28:39.037Z,100961.64
2019-02-24T21:31:52.494Z,100962.89
2019-02-24T21:35:06.472Z,100963.25
2019-02-24T21:38:19.964Z,100963.70
2019-02-24T21:41:33.438Z,100963.36
2019-02-24T21:44:46.900Z,100962.10
2019-02-24T21:48:00.345Z,100970.95
2019-02-24T21:51:14.089Z,100974.29
2019-02-24T21:54:27.553Z,100977.97
2019-02-24T21:57:41.840Z,100982.20
2019-02-24T22:00:55.290Z,100982.77
2019-02-24T22:04:08.760Z,100980.50
2019-02-24T22:07:22.216Z,100984.17
2019-02-24T22:10:35.981Z,100992.31
2019-02-24T22:13:49.438Z,100999.56
2019-02-24T22:17:03.412Z,100994.02
2019-02-24T22:20:17.002Z,100992.53
2019-02-24T22:23:30.450Z,100991.73
2019-02-24T22:26:44.555Z,100991.95
2019-02-24T22:29:58.116Z,100998.05
2019-02-24T22:33:11.581Z,100995.64
2019-02-24T22:36:25.060Z,101007.48
2019-02-24T22:39:38.910Z,101010.45
2019-02-24T22:42:52.933Z,101009.30
2019-02-24T22:46:06.631Z,101018.95
2019-02-24T22:49:20.538Z,101013.98
2019-02-24T22:52:34.037Z,101014.05
2019-02-24T22:55:47.500Z,101007.10
2019-02-24T22:59:01.116Z,101008.72
2019-02-24T23:02:16.243Z,101011.91
2019-02-24T23:05:30.068Z,101010.51
2019-02-24T23:08:43.585Z,101004.06
2019-02-24T23:11:57.314Z,101000.52
2019-02-24T23:15:11.319Z,100995.08
2019-02-24T23:18:24.810Z,100995.39
2019-02-24T23:21:38.260Z,100995.25
2019-02-24T23:24:52.189Z,100994.78
2019-02-24T23:28:05.751Z,100995.48
2019-02-24T23:31:19.209Z,100996.55
2019-02-24T23:34:32.699Z,100992.02
2019-02-24T23:37:46.705Z,100982.67
2019-02-24T23:41:00.587Z,100982.87
2019-02-24T23:44:17.234Z,100974.35
2019-02-24T23:47:30.716Z,100972.22
2019-02-24T23:50:44.208Z,100977.62
2019-02-24T23:53:57.815Z,100983.69
2019-02-24T23:57:11.265Z,100989.23
